sensor_id;sensor_type;location;lat;lon;timestamp;pressure;altitude;pressure_sealevel;temperature;humidity
79374;BME280;68844;53.128;17.958;2023-08-08T00:00:34;100047.62;;;12.01;72.15
79374;BME280;68844;53.128;17.958;2023-08-08T00:03:21;100051.24;;;11.97;72.24
79374;BME280;68844;53.128;17.958;2023-08-08T00:05:48;100048.44;;;11.97;72.42
79374;BME280;68844;53.128;17.958;2023-08-08T00:08:14;100045.99;;;11.92;72.39
79374;BME280;68844;53.128;17.958;2023-08-08T00:10:41;100053.16;;;11.88;72.44
79374;BME280;68844;53.128;17.958;2023-08-08T00:13:07;100052.55;;;11.85;72.60
79374;BME280;68844;53.128;17.958;2023-08-08T00:15:34;100046.50;;;11.81;73.22
79374;BME280;68844;53.128;17.958;2023-08-08T00:18:00;100044.47;;;11.86;72.73
79374;BME280;68844;53.128;17.958;2023-08-08T00:20:27;100046.62;;;11.91;72.64
79374;BME280;68844;53.128;17.958;2023-08-08T00:22:54;100044.73;;;11.95;72.86
79374;BME280;68844;53.128;17.958;2023-08-08T00:25:20;100048.63;;;11.95;73.08
79374;BME280;68844;53.128;17.958;2023-08-08T00:27:47;100043.09;;;11.93;72.23
79374;BME280;68844;53.128;17.958;2023-08-08T00:30:14;100040.88;;;11.97;72.19
79374;BME280;68844;53.128;17.958;2023-08-08T00:32:40;100046.92;;;11.94;72.11
79374;BME280;68844;53.128;17.958;2023-08-08T00:35:08;100043.45;;;11.88;71.94
79374;BME280;68844;53.128;17.958;2023-08-08T00:37:35;100048.04;;;11.83;71.84
79374;BME280;68844;53.128;17.958;2023-08-08T00:40:02;100046.24;;;11.84;72.16
79374;BME280;68844;53.128;17.958;2023-08-08T00:42:29;100058.77;;;11.84;72.73
79374;BME280;68844;53.128;17.958;2023-08-08T00:44:55;100055.57;;;11.82;72.87
79374;BME280;68844;53.128;17.958;2023-08-08T00:47:28;100053.67;;;11.77;72.56
79374;BME280;68844;53.128;17.958;2023-08-08T00:49:56;100054.84;;;11.75;72.43
79374;BME280;68844;53.128;17.958;2023-08-08T00:52:22;100057.35;;;11.75;72.24
79374;BME280;68844;53.128;17.958;2023-08-08T00:54:49;100055.69;;;11.78;72.84
79374;BME280;68844;53.128;17.958;2023-08-08T00:57:16;100055.29;;;11.77;72.49
79374;BME280;68844;53.128;17.958;2023-08-08T00:59:43;100059.86;;;11.72;72.47
79374;BME280;68844;53.128;17.958;2023-08-08T01:02:11;100058.71;;;11.68;72.40
79374;BME280;68844;53.128;17.958;2023-08-08T01:04:37;100063.34;;;11.67;72.87
79374;BME280;68844;53.128;17.958;2023-08-08T01:07:20;100062.88;;;11.66;73.40
79374;BME280;68844;53.128;17.958;2023-08-08T01:09:57;100067.40;;;11.62;73.84
79374;BME280;68844;53.128;17.958;2023-08-08T01:12:28;100075.01;;;11.62;74.08
79374;BME280;68844;53.128;17.958;2023-08-08T01:14:54;100078.34;;;11.65;73.75
79374;BME280;68844;53.128;17.958;2023-08-08T01:17:21;100080.25;;;11.65;74.17
79374;BME280;68844;53.128;17.958;2023-08-08T01:19:49;100076.79;;;11.62;74.01
79374;BME280;68844;53.128;17.958;2023-08-08T01:22:25;100071.36;;;11.58;74.10
79374;BME280;68844;53.128;17.958;2023-08-08T01:24:54;100079.36;;;11.55;74.31
79374;BME280;68844;53.128;17.958;2023-08-08T01:27:21;100083.34;;;11.59;74.60
79374;BME280;68844;53.128;17.958;2023-08-08T01:29:48;100084.20;;;11.56;74.72
79374;BME280;68844;53.128;17.958;2023-08-08T01:32:15;100085.82;;;11.54;74.53
79374;BME280;68844;53.128;17.958;2023-08-08T01:34:41;100082.65;;;11.54;74.21
79374;BME280;68844;53.128;17.958;2023-08-08T01:37:18;100079.48;;;11.58;74.49
79374;BME280;68844;53.128;17.958;2023-08-08T01:39:46;100078.15;;;11.60;75.07
79374;BME280;68844;53.128;17.958;2023-08-08T01:42:15;100076.15;;;11.58;74.94
79374;BME280;68844;53.128;17.958;2023-08-08T01:44:42;100080.16;;;11.56;74.55
79374;BME280;68844;53.128;17.958;2023-08-08T01:47:09;100081.48;;;11.58;75.12
79374;BME280;68844;53.128;17.958;2023-08-08T01:49:35;100080.95;;;11.58;74.81
79374;BME280;68844;53.128;17.958;2023-08-08T01:52:02;100080.75;;;11.53;75.88
79374;BME280;68844;53.128;17.958;2023-08-08T01:54:29;100079.45;;;11.47;75.58
79374;BME280;68844;53.128;17.958;2023-08-08T01:56:55;100082.70;;;11.41;75.70
79374;BME280;68844;53.128;17.958;2023-08-08T01:59:22;100082.84;;;11.41;75.74
79374;BME280;68844;53.128;17.958;2023-08-08T02:01:49;100085.56;;;11.47;76.15
79374;BME280;68844;53.128;17.958;2023-08-08T02:04:16;100089.23;;;11.50;75.83
79374;BME280;68844;53.128;17.958;2023-08-08T02:06:42;100089.77;;;11.55;76.10
79374;BME280;68844;53.128;17.958;2023-08-08T02:09:09;100090.88;;;11.67;75.73
79374;BME280;68844;53.128;17.958;2023-08-08T02:11:35;100099.81;;;11.80;75.24
79374;BME280;68844;53.128;17.958;2023-08-08T02:14:03;100099.49;;;11.92;76.00
79374;BME280;68844;53.128;17.958;2023-08-08T02:16:29;100099.20;;;11.98;75.41
79374;BME280;68844;53.128;17.958;2023-08-08T02:18:56;100095.63;;;12.04;75.08
79374;BME280;68844;53.128;17.958;2023-08-08T02:21:23;100095.66;;;12.08;74.29
79374;BME280;68844;53.128;17.958;2023-08-08T02:23:50;100095.48;;;12.10;74.56
79374;BME280;68844;53.128;17.958;2023-08-08T02:26:17;100097.98;;;12.05;74.42
79374;BME280;68844;53.128;17.958;2023-08-08T02:28:43;100093.64;;;11.97;74.62
79374;BME280;68844;53.128;17.958;2023-08-08T02:31:10;100097.63;;;11.91;75.14
79374;BME280;68844;53.128;17.958;2023-08-08T02:33:37;100096.63;;;11.85;74.55
79374;BME280;68844;53.128;17.958;2023-08-08T02:36:04;100102.00;;;11.79;75.27
79374;BME280;68844;53.128;17.958;2023-08-08T02:38:31;100101.93;;;11.73;75.72
79374;BME280;68844;53.128;17.958;2023-08-08T02:40:57;100108.42;;;11.66;75.65
79374;BME280;68844;53.128;17.958;2023-08-08T02:43:24;100108.17;;;11.62;75.97
79374;BME280;68844;53.128;17.958;2023-08-08T02:45:51;100109.56;;;11.59;76.19
79374;BME280;68844;53.128;17.958;2023-08-08T02:48:18;100111.55;;;11.59;76.33
79374;BME280;68844;53.128;17.958;2023-08-08T02:50:45;100112.05;;;11.61;76.81
79374;BME280;68844;53.128;17.958;2023-08-08T02:53:12;100114.90;;;11.64;76.87
79374;BME280;68844;53.128;17.958;2023-08-08T02:55:43;100112.16;;;11.70;76.72
79374;BME280;68844;53.128;17.958;2023-08-08T02:58:10;100111.61;;;11.75;76.67
79374;BME280;68844;53.128;17.958;2023-08-08T03:00:37;100111.90;;;11.86;76.16
79374;BME280;68844;53.128;17.958;2023-08-08T03:03:05;100112.30;;;11.92;76.10
79374;BME280;68844;53.128;17.958;2023-08-08T03:05:33;100114.91;;;11.95;76.29
79374;BME280;68844;53.128;17.958;2023-08-08T03:08:01;100113.02;;;11.97;76.16
79374;BME280;68844;53.128;17.958;2023-08-08T03:10:28;100110.73;;;12.00;76.05
79374;BME280;68844;53.128;17.958;2023-08-08T03:12:55;100111.55;;;12.08;75.95
79374;BME280;68844;53.128;17.958;2023-08-08T03:15:22;100113.17;;;12.15;75.54
79374;BME280;68844;53.128;17.958;2023-08-08T03:17:49;100114.22;;;12.17;74.81
79374;BME280;68844;53.128;17.958;2023-08-08T03:20:16;100114.44;;;12.21;75.02
79374;BME280;68844;53.128;17.958;2023-08-08T03:22:43;100110.83;;;12.27;74.95
79374;BME280;68844;53.128;17.958;2023-08-08T03:25:10;100114.84;;;12.32;74.91
79374;BME280;68844;53.128;17.958;2023-08-08T03:27:37;100113.59;;;12.35;74.85
79374;BME280;68844;53.128;17.958;2023-08-08T03:30:05;100110.69;;;12.40;74.51
79374;BME280;68844;53.128;17.958;2023-08-08T03:32:37;100112.66;;;12.43;74.75
79374;BME280;68844;53.128;17.958;2023-08-08T03:35:05;100114.46;;;12.51;74.03
79374;BME280;68844;53.128;17.958;2023-08-08T03:37:33;100121.39;;;12.58;73.87
79374;BME280;68844;53.128;17.958;2023-08-08T03:40:00;100122.27;;;12.60;74.02
79374;BME280;68844;53.128;17.958;2023-08-08T03:42:27;100122.46;;;12.63;73.51
79374;BME280;68844;53.128;17.958;2023-08-08T03:44:54;100130.30;;;12.66;73.51
79374;BME280;68844;53.128;17.958;2023-08-08T03:47:21;100129.00;;;12.71;72.98
79374;BME280;68844;53.128;17.958;2023-08-08T03:49:49;100134.59;;;12.77;73.57
79374;BME280;68844;53.128;17.958;2023-08-08T03:52:15;100138.66;;;12.79;73.06
79374;BME280;68844;53.128;17.958;2023-08-08T03:54:43;100137.77;;;12.82;72.66
79374;BME280;68844;53.128;17.958;2023-08-08T03:57:11;100143.55;;;12.85;73.02
79374;BME280;68844;53.128;17.958;2023-08-08T03:59:38;100143.27;;;12.91;73.03
79374;BME280;68844;53.128;17.958;2023-08-08T04:02:05;100138.53;;;12.93;72.62
79374;BME280;68844;53.128;17.958;2023-08-08T04:04:32;100144.13;;;12.96;72.13
79374;BME280;68844;53.128;17.958;2023-08-08T04:06:59;100145.34;;;12.98;71.39
79374;BME280;68844;53.128;17.958;2023-08-08T04:09:26;100149.70;;;12.99;72.01
79374;BME280;68844;53.128;17.958;2023-08-08T04:11:53;100154.04;;;13.05;71.80
79374;BME280;68844;53.128;17.958;2023-08-08T04:14:20;100153.90;;;13.11;72.55
79374;BME280;68844;53.128;17.958;2023-08-08T04:16:47;100156.98;;;13.15;71.22
79374;BME280;68844;53.128;17.958;2023-08-08T04:19:14;100155.33;;;13.20;71.36
79374;BME280;68844;53.128;17.958;2023-08-08T04:21:40;100162.62;;;13.27;70.75
79374;BME280;68844;53.128;17.958;2023-08-08T04:24:08;100164.41;;;13.29;71.00
79374;BME280;68844;53.128;17.958;2023-08-08T04:26:35;100166.73;;;13.33;70.84
79374;BME280;68844;53.128;17.958;2023-08-08T04:29:02;100165.48;;;13.33;70.67
79374;BME280;68844;53.128;17.958;2023-08-08T04:31:29;100166.90;;;13.33;70.73
79374;BME280;68844;53.128;17.958;2023-08-08T04:33:56;100167.10;;;13.37;70.06
79374;BME280;68844;53.128;17.958;2023-08-08T04:36:27;100173.53;;;13.43;70.16
79374;BME280;68844;53.128;17.958;2023-08-08T04:38:54;100173.05;;;13.49;69.95
79374;BME280;68844;53.128;17.958;2023-08-08T04:41:22;100175.73;;;13.58;69.85
79374;BME280;68844;53.128;17.958;2023-08-08T04:43:49;100179.24;;;13.65;69.33
79374;BME280;68844;53.128;17.958;2023-08-08T04:46:16;100184.52;;;13.66;69.33
79374;BME280;68844;53.128;17.958;2023-08-08T04:48:43;100183.33;;;13.62;69.22
79374;BME280;68844;53.128;17.958;2023-08-08T04:51:10;100185.68;;;13.57;68.05
79374;BME280;68844;53.128;17.958;2023-08-08T04:53:37;100190.96;;;13.55;68.45
79374;BME280;68844;53.128;17.958;2023-08-08T04:56:04;100190.20;;;13.58;68.90
79374;BME280;68844;53.128;17.958;2023-08-08T04:58:31;100199.28;;;13.62;68.22
79374;BME280;68844;53.128;17.958;2023-08-08T05:00:58;100202.34;;;13.68;68.26
79374;BME280;68844;53.128;17.958;2023-08-08T05:03:25;100206.77;;;13.75;68.63
79374;BME280;68844;53.128;17.958;2023-08-08T05:05:52;100211.48;;;13.89;68.00
79374;BME280;68844;53.128;17.958;2023-08-08T05:08:19;100214.38;;;14.10;68.15
79374;BME280;68844;53.128;17.958;2023-08-08T05:10:46;100211.96;;;14.42;67.66
79374;BME280;68844;53.128;17.958;2023-08-08T05:13:13;100213.21;;;15.35;66.46
79374;BME280;68844;53.128;17.958;2023-08-08T05:15:40;100209.71;;;17.17;60.13
79374;BME280;68844;53.128;17.958;2023-08-08T05:18:06;100212.41;;;16.98;60.99
79374;BME280;68844;53.128;17.958;2023-08-08T05:20:33;100210.48;;;16.92;60.75
79374;BME280;68844;53.128;17.958;2023-08-08T05:23:00;100215.05;;;16.85;59.89
79374;BME280;68844;53.128;17.958;2023-08-08T05:25:27;100217.34;;;16.73;59.70
79374;BME280;68844;53.128;17.958;2023-08-08T05:27:54;100211.06;;;16.84;58.73
79374;BME280;68844;53.128;17.958;2023-08-08T05:30:21;100217.27;;;17.26;57.86
79374;BME280;68844;53.128;17.958;2023-08-08T05:32:48;100217.65;;;17.67;56.15
79374;BME280;68844;53.128;17.958;2023-08-08T05:35:16;100222.69;;;17.42;58.05
79374;BME280;68844;53.128;17.958;2023-08-08T05:37:43;100220.51;;;17.12;57.94
79374;BME280;68844;53.128;17.958;2023-08-08T05:40:10;100225.63;;;16.84;58.55
79374;BME280;68844;53.128;17.958;2023-08-08T05:42:38;100227.03;;;16.53;59.09
79374;BME280;68844;53.128;17.958;2023-08-08T05:45:06;100230.90;;;16.45;59.74
79374;BME280;68844;53.128;17.958;2023-08-08T05:47:33;100234.90;;;16.34;59.98
79374;BME280;68844;53.128;17.958;2023-08-08T05:50:00;100236.02;;;16.22;60.52
79374;BME280;68844;53.128;17.958;2023-08-08T05:52:27;100235.09;;;16.17;60.75
79374;BME280;68844;53.128;17.958;2023-08-08T05:54:54;100236.38;;;16.10;60.43
79374;BME280;68844;53.128;17.958;2023-08-08T05:57:21;100238.06;;;15.97;60.67
79374;BME280;68844;53.128;17.958;2023-08-08T05:59:48;100237.45;;;16.06;60.91
79374;BME280;68844;53.128;17.958;2023-08-08T06:02:15;100243.98;;;16.93;59.13
79374;BME280;68844;53.128;17.958;2023-08-08T06:04:43;100245.36;;;16.88;59.11
79374;BME280;68844;53.128;17.958;2023-08-08T06:07:10;100254.66;;;16.91;59.29
79374;BME280;68844;53.128;17.958;2023-08-08T06:09:37;100251.27;;;17.12;58.87
79374;BME280;68844;53.128;17.958;2023-08-08T06:12:04;100248.63;;;17.22;57.87
79374;BME280;68844;53.128;17.958;2023-08-08T06:14:31;100252.87;;;17.50;57.34
79374;BME280;68844;53.128;17.958;2023-08-08T06:16:58;100241.33;;;19.81;51.82
79374;BME280;68844;53.128;17.958;2023-08-08T06:19:26;100240.83;;;21.69;47.63
79374;BME280;68844;53.128;17.958;2023-08-08T06:21:53;100244.07;;;22.32;47.59
79374;BME280;68844;53.128;17.958;2023-08-08T06:24:20;100245.31;;;22.81;46.56
79374;BME280;68844;53.128;17.958;2023-08-08T06:26:47;100240.16;;;24.42;40.85
79374;BME280;68844;53.128;17.958;2023-08-08T06:29:14;100248.60;;;24.33;41.30
79374;BME280;68844;53.128;17.958;2023-08-08T06:31:41;100250.55;;;23.78;42.11
79374;BME280;68844;53.128;17.958;2023-08-08T06:34:08;100249.80;;;22.62;42.72
79374;BME280;68844;53.128;17.958;2023-08-08T06:36:36;100251.20;;;22.49;43.51
79374;BME280;68844;53.128;17.958;2023-08-08T06:39:03;100249.59;;;23.23;43.47
79374;BME280;68844;53.128;17.958;2023-08-08T06:41:30;100243.83;;;23.43;42.78
79374;BME280;68844;53.128;17.958;2023-08-08T06:43:57;100250.39;;;24.02;39.56
79374;BME280;68844;53.128;17.958;2023-08-08T06:46:24;100257.41;;;22.73;40.92
79374;BME280;68844;53.128;17.958;2023-08-08T06:48:51;100262.10;;;21.60;42.64
79374;BME280;68844;53.128;17.958;2023-08-08T06:58:12;100252.62;;;24.62;38.59
79374;BME280;68844;53.128;17.958;2023-08-08T07:00:39;100244.66;;;26.63;34.67
79374;BME280;68844;53.128;17.958;2023-08-08T07:03:09;100240.29;;;28.08;32.14
79374;BME280;68844;53.128;17.958;2023-08-08T07:05:36;100245.84;;;29.51;30.58
79374;BME280;68844;53.128;17.958;2023-08-08T07:08:05;100244.41;;;30.51;28.09
79374;BME280;68844;53.128;17.958;2023-08-08T07:10:32;100247.33;;;31.66;28.44
79374;BME280;68844;53.128;17.958;2023-08-08T07:12:59;100244.56;;;31.55;27.10
79374;BME280;68844;53.128;17.958;2023-08-08T07:15:26;100245.83;;;31.68;26.20
79374;BME280;68844;53.128;17.958;2023-08-08T07:17:54;100242.37;;;32.20;26.60
79374;BME280;68844;53.128;17.958;2023-08-08T07:20:21;100247.27;;;32.88;24.11
79374;BME280;68844;53.128;17.958;2023-08-08T07:22:49;100244.65;;;32.77;23.97
79374;BME280;68844;53.128;17.958;2023-08-08T07:25:18;100253.58;;;32.79;24.41
79374;BME280;68844;53.128;17.958;2023-08-08T07:27:45;100251.73;;;32.75;23.77
79374;BME280;68844;53.128;17.958;2023-08-08T07:30:13;100250.69;;;33.27;23.12
79374;BME280;68844;53.128;17.958;2023-08-08T07:32:39;100254.35;;;32.06;24.81
79374;BME280;68844;53.128;17.958;2023-08-08T07:35:06;100260.23;;;30.94;24.89
79374;BME280;68844;53.128;17.958;2023-08-08T07:37:34;100260.87;;;29.68;26.14
79374;BME280;68844;53.128;17.958;2023-08-08T07:40:02;100263.45;;;30.23;27.01
79374;BME280;68844;53.128;17.958;2023-08-08T07:42:31;100268.17;;;31.15;25.92
79374;BME280;68844;53.128;17.958;2023-08-08T07:45:00;100272.03;;;30.19;26.74
79374;BME280;68844;53.128;17.958;2023-08-08T07:47:27;100276.63;;;30.53;26.97
79374;BME280;68844;53.128;17.958;2023-08-08T07:49:54;100275.13;;;30.15;26.96
79374;BME280;68844;53.128;17.958;2023-08-08T07:52:20;100274.39;;;31.51;25.39
79374;BME280;68844;53.128;17.958;2023-08-08T07:54:47;100274.23;;;30.61;26.15
79374;BME280;68844;53.128;17.958;2023-08-08T07:57:14;100275.48;;;28.88;28.05
79374;BME280;68844;53.128;17.958;2023-08-08T07:59:40;100278.02;;;27.66;30.33
79374;BME280;68844;53.128;17.958;2023-08-08T08:02:07;100279.41;;;26.63;31.49
79374;BME280;68844;53.128;17.958;2023-08-08T08:04:34;100286.05;;;26.76;31.70
79374;BME280;68844;53.128;17.958;2023-08-08T08:07:01;100287.52;;;25.87;32.91
79374;BME280;68844;53.128;17.958;2023-08-08T08:09:28;100286.98;;;25.24;33.76
79374;BME280;68844;53.128;17.958;2023-08-08T08:11:55;100295.35;;;24.28;35.32
79374;BME280;68844;53.128;17.958;2023-08-08T08:14:22;100294.23;;;23.80;36.21
79374;BME280;68844;53.128;17.958;2023-08-08T08:16:49;100302.35;;;23.36;37.29
79374;BME280;68844;53.128;17.958;2023-08-08T08:19:16;100313.73;;;22.80;37.59
79374;BME280;68844;53.128;17.958;2023-08-08T08:21:43;100311.57;;;23.12;37.63
79374;BME280;68844;53.128;17.958;2023-08-08T08:24:10;100315.23;;;22.75;37.86
79374;BME280;68844;53.128;17.958;2023-08-08T08:26:38;100321.42;;;22.69;38.63
79374;BME280;68844;53.128;17.958;2023-08-08T08:29:04;100324.43;;;22.46;39.61
79374;BME280;68844;53.128;17.958;2023-08-08T08:31:34;100331.84;;;22.17;39.98
79374;BME280;68844;53.128;17.958;2023-08-08T08:34:01;100331.23;;;22.74;39.02
79374;BME280;68844;53.128;17.958;2023-08-08T08:36:27;100322.31;;;24.41;36.58
79374;BME280;68844;53.128;17.958;2023-08-08T08:38:54;100320.40;;;24.11;36.10
79374;BME280;68844;53.128;17.958;2023-08-08T08:41:25;100325.02;;;23.17;37.58
79374;BME280;68844;53.128;17.958;2023-08-08T08:43:54;100324.96;;;24.35;36.67
79374;BME280;68844;53.128;17.958;2023-08-08T08:46:21;100316.48;;;25.44;34.31
79374;BME280;68844;53.128;17.958;2023-08-08T08:48:52;100318.00;;;27.42;31.63
79374;BME280;68844;53.128;17.958;2023-08-08T08:51:21;100316.63;;;27.45;31.23
79374;BME280;68844;53.128;17.958;2023-08-08T08:53:51;100316.78;;;27.75;30.55
79374;BME280;68844;53.128;17.958;2023-08-08T08:56:18;100320.56;;;28.15;29.60
79374;BME280;68844;53.128;17.958;2023-08-08T08:58:45;100319.82;;;27.53;30.56
79374;BME280;68844;53.128;17.958;2023-08-08T09:01:12;100328.71;;;26.36;32.60
79374;BME280;68844;53.128;17.958;2023-08-08T09:03:39;100326.64;;;25.68;33.77
79374;BME280;68844;53.128;17.958;2023-08-08T09:06:06;100330.39;;;24.30;35.77
79374;BME280;68844;53.128;17.958;2023-08-08T09:08:33;100334.49;;;23.71;36.71
79374;BME280;68844;53.128;17.958;2023-08-08T09:11:00;100334.73;;;23.67;37.19
79374;BME280;68844;53.128;17.958;2023-08-08T09:13:27;100338.48;;;23.31;37.79
79374;BME280;68844;53.128;17.958;2023-08-08T09:15:53;100340.38;;;22.79;38.49
79374;BME280;68844;53.128;17.958;2023-08-08T09:18:23;100344.23;;;22.09;39.44
79374;BME280;68844;53.128;17.958;2023-08-08T09:20:50;100345.21;;;21.66;39.94
79374;BME280;68844;53.128;17.958;2023-08-08T09:23:17;100344.81;;;21.47;41.04
79374;BME280;68844;53.128;17.958;2023-08-08T09:25:44;100352.60;;;21.40;41.35
79374;BME280;68844;53.128;17.958;2023-08-08T09:28:11;100355.99;;;21.40;41.94
79374;BME280;68844;53.128;17.958;2023-08-08T09:30:38;100357.15;;;21.48;42.36
79374;BME280;68844;53.128;17.958;2023-08-08T09:33:06;100359.23;;;21.80;42.40
79374;BME280;68844;53.128;17.958;2023-08-08T09:35:34;100355.48;;;22.27;41.19
79374;BME280;68844;53.128;17.958;2023-08-08T09:38:01;100353.38;;;22.83;40.31
79374;BME280;68844;53.128;17.958;2023-08-08T09:40:28;100354.57;;;24.49;37.59
79374;BME280;68844;53.128;17.958;2023-08-08T09:42:56;100351.02;;;24.34;36.76
79374;BME280;68844;53.128;17.958;2023-08-08T09:45:22;100355.46;;;23.56;38.04
79374;BME280;68844;53.128;17.958;2023-08-08T09:47:50;100361.85;;;22.60;39.32
79374;BME280;68844;53.128;17.958;2023-08-08T09:50:19;100358.96;;;22.01;40.82
79374;BME280;68844;53.128;17.958;2023-08-08T09:52:47;100359.83;;;21.96;40.93
79374;BME280;68844;53.128;17.958;2023-08-08T09:55:14;100360.95;;;23.09;40.02
79374;BME280;68844;53.128;17.958;2023-08-08T09:57:41;100361.31;;;23.60;39.18
79374;BME280;68844;53.128;17.958;2023-08-08T10:00:09;100367.75;;;23.94;38.60
79374;BME280;68844;53.128;17.958;2023-08-08T10:02:44;100357.58;;;24.97;36.67
79374;BME280;68844;53.128;17.958;2023-08-08T10:05:12;100360.80;;;25.18;36.39
79374;BME280;68844;53.128;17.958;2023-08-08T10:07:40;100355.30;;;25.60;35.36
79374;BME280;68844;53.128;17.958;2023-08-08T10:10:09;100349.29;;;26.03;34.99
79374;BME280;68844;53.128;17.958;2023-08-08T10:12:38;100349.75;;;25.97;35.13
79374;BME280;68844;53.128;17.958;2023-08-08T10:15:13;100350.87;;;26.18;35.07
79374;BME280;68844;53.128;17.958;2023-08-08T10:17:41;100351.13;;;25.87;34.74
79374;BME280;68844;53.128;17.958;2023-08-08T10:20:10;100348.70;;;25.62;35.40
79374;BME280;68844;53.128;17.958;2023-08-08T10:22:44;100346.67;;;25.53;35.93
79374;BME280;68844;53.128;17.958;2023-08-08T10:25:23;100341.60;;;26.26;34.81
79374;BME280;68844;53.128;17.958;2023-08-08T10:27:50;100343.48;;;27.41;32.38
79374;BME280;68844;53.128;17.958;2023-08-08T10:30:16;100338.42;;;27.87;30.73
79374;BME280;68844;53.128;17.958;2023-08-08T10:32:45;100343.44;;;27.09;32.44
79374;BME280;68844;53.128;17.958;2023-08-08T10:35:15;100351.79;;;26.26;33.97
79374;BME280;68844;53.128;17.958;2023-08-08T10:37:51;100351.50;;;25.82;34.27
79374;BME280;68844;53.128;17.958;2023-08-08T10:40:19;100348.21;;;25.63;34.02
79374;BME280;68844;53.128;17.958;2023-08-08T10:42:46;100349.02;;;25.18;34.06
79374;BME280;68844;53.128;17.958;2023-08-08T10:45:15;100336.52;;;24.77;34.63
79374;BME280;68844;53.128;17.958;2023-08-08T10:47:43;100340.95;;;24.13;36.46
79374;BME280;68844;53.128;17.958;2023-08-08T10:50:14;100349.82;;;24.20;36.72
79374;BME280;68844;53.128;17.958;2023-08-08T10:55:24;100348.36;;;24.42;37.11
79374;BME280;68844;53.128;17.958;2023-08-08T10:57:59;100341.80;;;24.69;36.48
79374;BME280;68844;53.128;17.958;2023-08-08T11:00:31;100347.02;;;24.60;36.13
79374;BME280;68844;53.128;17.958;2023-08-08T11:02:59;100353.77;;;23.97;37.01
79374;BME280;68844;53.128;17.958;2023-08-08T11:05:30;100356.08;;;23.29;37.48
79374;BME280;68844;53.128;17.958;2023-08-08T11:07:58;100365.46;;;22.42;39.17
79374;BME280;68844;53.128;17.958;2023-08-08T11:10:25;100366.83;;;21.85;40.43
79374;BME280;68844;53.128;17.958;2023-08-08T11:13:02;100366.81;;;22.17;40.53
79374;BME280;68844;53.128;17.958;2023-08-08T11:15:31;100364.56;;;22.55;39.86
79374;BME280;68844;53.128;17.958;2023-08-08T11:17:59;100365.11;;;22.73;40.14
79374;BME280;68844;53.128;17.958;2023-08-08T11:20:30;100375.63;;;22.46;40.76
79374;BME280;68844;53.128;17.958;2023-08-08T11:22:58;100376.14;;;22.12;40.88
79374;BME280;68844;53.128;17.958;2023-08-08T11:25:28;100378.40;;;21.86;42.61
79374;BME280;68844;53.128;17.958;2023-08-08T11:27:56;100372.33;;;21.85;43.79
79374;BME280;68844;53.128;17.958;2023-08-08T11:30:27;100376.81;;;22.07;44.17
79374;BME280;68844;53.128;17.958;2023-08-08T11:32:54;100369.15;;;22.36;43.07
79374;BME280;68844;53.128;17.958;2023-08-08T11:35:25;100367.17;;;22.60;42.87
79374;BME280;68844;53.128;17.958;2023-08-08T11:37:53;100369.84;;;22.48;41.20
79374;BME280;68844;53.128;17.958;2023-08-08T11:40:22;100367.48;;;22.24;40.74
79374;BME280;68844;53.128;17.958;2023-08-08T11:42:51;100376.11;;;22.32;40.79
79374;BME280;68844;53.128;17.958;2023-08-08T11:45:18;100377.02;;;22.65;41.04
79374;BME280;68844;53.128;17.958;2023-08-08T11:47:55;100369.98;;;23.67;39.67
79374;BME280;68844;53.128;17.958;2023-08-08T11:50:25;100361.91;;;24.31;38.38
79374;BME280;68844;53.128;17.958;2023-08-08T11:52:54;100364.81;;;24.68;37.55
79374;BME280;68844;53.128;17.958;2023-08-08T11:55:28;100361.85;;;24.80;37.01
79374;BME280;68844;53.128;17.958;2023-08-08T11:57:56;100364.48;;;24.41;37.41
79374;BME280;68844;53.128;17.958;2023-08-08T12:00:27;100361.64;;;24.26;38.25
79374;BME280;68844;53.128;17.958;2023-08-08T12:02:55;100365.19;;;24.25;38.94
79374;BME280;68844;53.128;17.958;2023-08-08T12:05:23;100363.33;;;24.49;38.65
79374;BME280;68844;53.128;17.958;2023-08-08T12:07:52;100360.59;;;25.08;37.89
79374;BME280;68844;53.128;17.958;2023-08-08T12:10:23;100362.20;;;24.81;36.86
79374;BME280;68844;53.128;17.958;2023-08-08T12:12:58;100357.52;;;24.73;36.85
79374;BME280;68844;53.128;17.958;2023-08-08T12:15:32;100356.62;;;24.50;35.78
79374;BME280;68844;53.128;17.958;2023-08-08T12:17:59;100350.66;;;24.43;37.03
79374;BME280;68844;53.128;17.958;2023-08-08T12:20:29;100348.45;;;24.36;37.09
79374;BME280;68844;53.128;17.958;2023-08-08T12:22:57;100345.77;;;24.65;37.13
79374;BME280;68844;53.128;17.958;2023-08-08T12:25:25;100349.09;;;25.06;37.23
79374;BME280;68844;53.128;17.958;2023-08-08T12:27:51;100342.92;;;25.47;35.49
79374;BME280;68844;53.128;17.958;2023-08-08T12:30:18;100332.91;;;25.57;34.40
79374;BME280;68844;53.128;17.958;2023-08-08T12:32:45;100339.98;;;25.31;34.98
79374;BME280;68844;53.128;17.958;2023-08-08T12:35:11;100338.20;;;25.28;34.87
79374;BME280;68844;53.128;17.958;2023-08-08T12:37:38;100338.68;;;25.01;35.03
79374;BME280;68844;53.128;17.958;2023-08-08T12:40:05;100334.73;;;24.66;35.92
79374;BME280;68844;53.128;17.958;2023-08-08T12:42:32;100338.80;;;24.55;36.73
79374;BME280;68844;53.128;17.958;2023-08-08T12:44:59;100348.02;;;24.71;36.46
79374;BME280;68844;53.128;17.958;2023-08-08T12:47:26;100347.53;;;24.62;36.09
79374;BME280;68844;53.128;17.958;2023-08-08T12:49:52;100344.55;;;24.70;35.79
79374;BME280;68844;53.128;17.958;2023-08-08T12:52:19;100341.52;;;24.70;36.30